sensor_id;sensor_type;location;lat;lon;timestamp;P1;durP1;ratioP1;P2;durP2;ratioP2
3141;SDS011;1581;51.568;6.998;2023-07-02T00:00:02;7.70;;;3.20;;
3141;SDS011;1581;51.568;6.998;2023-07-02T00:02:33;6.40;;;4.30;;
3141;SDS011;1581;51.568;6.998;2023-07-02T00:05:00;9.33;;;3.43;;
3141;SDS011;1581;51.568;6.998;2023-07-02T00:07:28;9.30;;;3.60;;
3141;SDS011;1581;51.568;6.998;2023-07-02T00:09:56;4.70;;;3.17;;
3141;SDS011;1581;51.568;6.998;2023-07-02T00:12:24;5.50;;;3.23;;
3141;SDS011;1581;51.568;6.998;2023-07-02T00:14:51;6.73;;;3.67;;
3141;SDS011;1581;51.568;6.998;2023-07-02T00:17:19;5.20;;;3.33;;
3141;SDS011;1581;51.568;6.998;2023-07-02T00:19:49;4.53;;;3.50;;
3141;SDS011;1581;51.568;6.998;2023-07-02T00:22:17;7.37;;;3.70;;
3141;SDS011;1581;51.568;6.998;2023-07-02T00:24:44;7.97;;;4.30;;
3141;SDS011;1581;51.568;6.998;2023-07-02T00:27:12;8.90;;;4.30;;
3141;SDS011;1581;51.568;6.998;2023-07-02T00:29:40;7.60;;;4.33;;
3141;SDS011;1581;51.568;6.998;2023-07-02T00:32:08;7.53;;;4.83;;
3141;SDS011;1581;51.568;6.998;2023-07-02T00:34:36;13.20;;;4.90;;
3141;SDS011;1581;51.568;6.998;2023-07-02T00:37:06;8.07;;;3.47;;
3141;SDS011;1581;51.568;6.998;2023-07-02T00:39:33;6.73;;;4.57;;
3141;SDS011;1581;51.568;6.998;2023-07-02T00:42:01;6.90;;;4.30;;
3141;SDS011;1581;51.568;6.998;2023-07-02T00:44:29;11.97;;;4.43;;
3141;SDS011;1581;51.568;6.998;2023-07-02T00:46:57;6.70;;;4.20;;
3141;SDS011;1581;51.568;6.998;2023-07-02T00:49:25;12.17;;;4.40;;
3141;SDS011;1581;51.568;6.998;2023-07-02T00:51:53;13.57;;;4.60;;
3141;SDS011;1581;51.568;6.998;2023-07-02T00:54:23;14.53;;;4.47;;
3141;SDS011;1581;51.568;6.998;2023-07-02T00:56:51;9.87;;;4.70;;
3141;SDS011;1581;51.568;6.998;2023-07-02T00:59:19;7.23;;;4.30;;
3141;SDS011;1581;51.568;6.998;2023-07-02T01:01:47;11.97;;;4.77;;
3141;SDS011;1581;51.568;6.998;2023-07-02T01:04:16;9.37;;;4.90;;
3141;SDS011;1581;51.568;6.998;2023-07-02T01:06:45;10.83;;;4.40;;
3141;SDS011;1581;51.568;6.998;2023-07-02T01:09:13;6.83;;;3.20;;
3141;SDS011;1581;51.568;6.998;2023-07-02T01:11:43;10.90;;;4.30;;
3141;SDS011;1581;51.568;6.998;2023-07-02T01:14:16;10.50;;;4.60;;
3141;SDS011;1581;51.568;6.998;2023-07-02T01:16:49;4.80;;;3.70;;
3141;SDS011;1581;51.568;6.998;2023-07-02T01:19:19;11.33;;;4.07;;
3141;SDS011;1581;51.568;6.998;2023-07-02T01:21:50;6.10;;;3.63;;
3141;SDS011;1581;51.568;6.998;2023-07-02T01:24:18;6.43;;;3.33;;
3141;SDS011;1581;51.568;6.998;2023-07-02T01:26:47;10.03;;;4.53;;
3141;SDS011;1581;51.568;6.998;2023-07-02T01:29:15;8.57;;;4.20;;
3141;SDS011;1581;51.568;6.998;2023-07-02T01:31:44;8.63;;;3.93;;
3141;SDS011;1581;51.568;6.998;2023-07-02T01:34:12;14.20;;;4.13;;
3141;SDS011;1581;51.568;6.998;2023-07-02T01:36:41;8.60;;;3.87;;
3141;SDS011;1581;51.568;6.998;2023-07-02T01:39:10;5.93;;;4.13;;
3141;SDS011;1581;51.568;6.998;2023-07-02T01:41:41;5.53;;;4.03;;
3141;SDS011;1581;51.568;6.998;2023-07-02T01:44:12;7.13;;;4.13;;
3141;SDS011;1581;51.568;6.998;2023-07-02T01:46:40;9.77;;;4.50;;
3141;SDS011;1581;51.568;6.998;2023-07-02T01:49:07;8.90;;;4.37;;
3141;SDS011;1581;51.568;6.998;2023-07-02T01:51:35;9.73;;;3.93;;
3141;SDS011;1581;51.568;6.998;2023-07-02T01:54:03;10.50;;;4.77;;
3141;SDS011;1581;51.568;6.998;2023-07-02T01:56:33;9.40;;;4.90;;
3141;SDS011;1581;51.568;6.998;2023-07-02T01:59:00;9.43;;;4.60;;
3141;SDS011;1581;51.568;6.998;2023-07-02T02:01:28;5.23;;;3.50;;
3141;SDS011;1581;51.568;6.998;2023-07-02T02:03:57;11.53;;;5.70;;
3141;SDS011;1581;51.568;6.998;2023-07-02T02:06:25;15.10;;;5.27;;
3141;SDS011;1581;51.568;6.998;2023-07-02T02:08:53;16.17;;;6.37;;
3141;SDS011;1581;51.568;6.998;2023-07-02T02:11:20;13.37;;;5.03;;
3141;SDS011;1581;51.568;6.998;2023-07-02T02:13:50;14.50;;;5.13;;
3141;SDS011;1581;51.568;6.998;2023-07-02T02:16:18;15.00;;;5.40;;
3141;SDS011;1581;51.568;6.998;2023-07-02T02:18:46;14.13;;;6.63;;
3141;SDS011;1581;51.568;6.998;2023-07-02T02:21:17;11.80;;;5.00;;
3141;SDS011;1581;51.568;6.998;2023-07-02T02:23:45;16.33;;;6.60;;
3141;SDS011;1581;51.568;6.998;2023-07-02T02:26:14;11.57;;;5.47;;
3141;SDS011;1581;51.568;6.998;2023-07-02T02:28:42;15.10;;;5.80;;
3141;SDS011;1581;51.568;6.998;2023-07-02T02:31:11;15.37;;;5.90;;
3141;SDS011;1581;51.568;6.998;2023-07-02T02:33:39;13.80;;;5.30;;
3141;SDS011;1581;51.568;6.998;2023-07-02T02:36:06;14.33;;;6.47;;
3141;SDS011;1581;51.568;6.998;2023-07-02T02:38:34;16.63;;;6.50;;
3141;SDS011;1581;51.568;6.998;2023-07-02T02:41:02;10.37;;;6.00;;
3141;SDS011;1581;51.568;6.998;2023-07-02T02:43:33;19.00;;;5.73;;
3141;SDS011;1581;51.568;6.998;2023-07-02T02:46:01;16.00;;;6.77;;
3141;SDS011;1581;51.568;6.998;2023-07-02T02:48:30;18.73;;;6.50;;
3141;SDS011;1581;51.568;6.998;2023-07-02T02:50:58;15.13;;;6.57;;
3141;SDS011;1581;51.568;6.998;2023-07-02T02:53:26;17.80;;;7.70;;
3141;SDS011;1581;51.568;6.998;2023-07-02T02:55:53;20.60;;;7.23;;
3141;SDS011;1581;51.568;6.998;2023-07-02T02:58:21;12.13;;;6.13;;
3141;SDS011;1581;51.568;6.998;2023-07-02T03:00:49;18.47;;;8.67;;
3141;SDS011;1581;51.568;6.998;2023-07-02T03:03:17;18.20;;;7.07;;
3141;SDS011;1581;51.568;6.998;2023-07-02T03:05:46;17.30;;;7.57;;
3141;SDS011;1581;51.568;6.998;2023-07-02T03:08:14;20.20;;;7.70;;
3141;SDS011;1581;51.568;6.998;2023-07-02T03:10:43;20.10;;;7.97;;
3141;SDS011;1581;51.568;6.998;2023-07-02T03:13:11;13.80;;;7.90;;
3141;SDS011;1581;51.568;6.998;2023-07-02T03:15:41;19.03;;;8.90;;
3141;SDS011;1581;51.568;6.998;2023-07-02T03:18:09;18.57;;;8.33;;
3141;SDS011;1581;51.568;6.998;2023-07-02T03:20:37;17.33;;;8.40;;
3141;SDS011;1581;51.568;6.998;2023-07-02T03:23:06;17.90;;;7.80;;
3141;SDS011;1581;51.568;6.998;2023-07-02T03:25:34;19.40;;;7.70;;
3141;SDS011;1581;51.568;6.998;2023-07-02T03:28:02;16.00;;;7.57;;
3141;SDS011;1581;51.568;6.998;2023-07-02T03:30:30;17.20;;;7.67;;
3141;SDS011;1581;51.568;6.998;2023-07-02T03:32:58;24.67;;;8.93;;
3141;SDS011;1581;51.568;6.998;2023-07-02T03:35:25;13.00;;;7.23;;
3141;SDS011;1581;51.568;6.998;2023-07-02T03:37:54;15.70;;;7.57;;
3141;SDS011;1581;51.568;6.998;2023-07-02T03:40:25;21.50;;;8.07;;
3141;SDS011;1581;51.568;6.998;2023-07-02T03:42:53;15.70;;;7.73;;
3141;SDS011;1581;51.568;6.998;2023-07-02T03:45:20;20.30;;;8.60;;
3141;SDS011;1581;51.568;6.998;2023-07-02T03:47:48;21.03;;;9.03;;
3141;SDS011;1581;51.568;6.998;2023-07-02T03:50:16;18.80;;;8.60;;
3141;SDS011;1581;51.568;6.998;2023-07-02T03:52:43;20.47;;;8.70;;
3141;SDS011;1581;51.568;6.998;2023-07-02T03:55:12;18.00;;;7.50;;
3141;SDS011;1581;51.568;6.998;2023-07-02T03:57:41;28.63;;;9.20;;
3141;SDS011;1581;51.568;6.998;2023-07-02T04:00:09;17.00;;;8.13;;
3141;SDS011;1581;51.568;6.998;2023-07-02T04:02:37;18.57;;;8.67;;
3141;SDS011;1581;51.568;6.998;2023-07-02T04:05:05;17.87;;;8.30;;
3141;SDS011;1581;51.568;6.998;2023-07-02T04:07:33;15.10;;;8.30;;
3141;SDS011;1581;51.568;6.998;2023-07-02T04:10:01;19.17;;;8.20;;
3141;SDS011;1581;51.568;6.998;2023-07-02T04:12:29;11.07;;;7.70;;
3141;SDS011;1581;51.568;6.998;2023-07-02T04:14:59;21.73;;;8.67;;
3141;SDS011;1581;51.568;6.998;2023-07-02T04:17:27;22.77;;;9.30;;
3141;SDS011;1581;51.568;6.998;2023-07-02T04:19:56;23.63;;;8.23;;
3141;SDS011;1581;51.568;6.998;2023-07-02T04:22:26;24.43;;;8.07;;
3141;SDS011;1581;51.568;6.998;2023-07-02T04:24:53;27.20;;;9.70;;
3141;SDS011;1581;51.568;6.998;2023-07-02T04:27:21;19.73;;;8.80;;
3141;SDS011;1581;51.568;6.998;2023-07-02T04:29:49;16.90;;;9.43;;
3141;SDS011;1581;51.568;6.998;2023-07-02T04:32:18;24.77;;;10.50;;
3141;SDS011;1581;51.568;6.998;2023-07-02T04:34:46;18.93;;;9.20;;
3141;SDS011;1581;51.568;6.998;2023-07-02T04:37:14;21.43;;;10.03;;
3141;SDS011;1581;51.568;6.998;2023-07-02T04:39:43;20.70;;;11.37;;
3141;SDS011;1581;51.568;6.998;2023-07-02T04:42:11;29.43;;;11.23;;
3141;SDS011;1581;51.568;6.998;2023-07-02T04:44:40;18.77;;;10.03;;
3141;SDS011;1581;51.568;6.998;2023-07-02T04:47:08;21.83;;;10.43;;
3141;SDS011;1581;51.568;6.998;2023-07-02T04:49:38;23.57;;;10.80;;
3141;SDS011;1581;51.568;6.998;2023-07-02T04:52:06;25.57;;;10.93;;
3141;SDS011;1581;51.568;6.998;2023-07-02T04:54:34;27.10;;;11.00;;
3141;SDS011;1581;51.568;6.998;2023-07-02T04:57:02;32.00;;;11.70;;
3141;SDS011;1581;51.568;6.998;2023-07-02T04:59:31;21.63;;;11.20;;
3141;SDS011;1581;51.568;6.998;2023-07-02T05:01:58;21.77;;;11.03;;
3141;SDS011;1581;51.568;6.998;2023-07-02T05:04:26;22.50;;;10.90;;
3141;SDS011;1581;51.568;6.998;2023-07-02T05:06:55;24.77;;;11.50;;
3141;SDS011;1581;51.568;6.998;2023-07-02T05:09:23;30.20;;;11.80;;
3141;SDS011;1581;51.568;6.998;2023-07-02T05:11:50;24.10;;;10.90;;
3141;SDS011;1581;51.568;6.998;2023-07-02T05:14:18;25.00;;;11.30;;
3141;SDS011;1581;51.568;6.998;2023-07-02T05:16:46;24.93;;;11.90;;
3141;SDS011;1581;51.568;6.998;2023-07-02T05:19:14;28.27;;;12.47;;
3141;SDS011;1581;51.568;6.998;2023-07-02T05:21:42;29.80;;;11.47;;
3141;SDS011;1581;51.568;6.998;2023-07-02T05:24:11;33.03;;;12.20;;
3141;SDS011;1581;51.568;6.998;2023-07-02T05:26:39;26.63;;;10.98;;
3141;SDS011;1581;51.568;6.998;2023-07-02T05:29:08;27.97;;;12.30;;
3141;SDS011;1581;51.568;6.998;2023-07-02T05:31:36;29.77;;;13.90;;
3141;SDS011;1581;51.568;6.998;2023-07-02T05:34:04;34.20;;;13.30;;
3141;SDS011;1581;51.568;6.998;2023-07-02T05:36:33;24.90;;;11.90;;
3141;SDS011;1581;51.568;6.998;2023-07-02T05:39:01;27.37;;;12.47;;
3141;SDS011;1581;51.568;6.998;2023-07-02T05:41:30;26.70;;;12.20;;
3141;SDS011;1581;51.568;6.998;2023-07-02T05:43:58;27.80;;;11.70;;
3141;SDS011;1581;51.568;6.998;2023-07-02T05:46:26;27.13;;;12.57;;
3141;SDS011;1581;51.568;6.998;2023-07-02T05:48:54;25.70;;;10.97;;
3141;SDS011;1581;51.568;6.998;2023-07-02T05:51:22;21.73;;;10.70;;
3141;SDS011;1581;51.568;6.998;2023-07-02T05:53:50;26.07;;;10.67;;
3141;SDS011;1581;51.568;6.998;2023-07-02T05:56:18;26.20;;;11.43;;
3141;SDS011;1581;51.568;6.998;2023-07-02T05:58:48;28.33;;;11.70;;
3141;SDS011;1581;51.568;6.998;2023-07-02T06:01:16;24.03;;;11.30;;
3141;SDS011;1581;51.568;6.998;2023-07-02T06:03:44;26.93;;;10.60;;
3141;SDS011;1581;51.568;6.998;2023-07-02T06:06:12;33.43;;;10.50;;
3141;SDS011;1581;51.568;6.998;2023-07-02T06:08:40;22.87;;;8.70;;
3141;SDS011;1581;51.568;6.998;2023-07-02T06:11:08;30.63;;;11.07;;
3141;SDS011;1581;51.568;6.998;2023-07-02T06:13:36;24.63;;;11.00;;
3141;SDS011;1581;51.568;6.998;2023-07-02T06:16:11;20.07;;;10.60;;
3141;SDS011;1581;51.568;6.998;2023-07-02T06:18:41;24.73;;;11.17;;
3141;SDS011;1581;51.568;6.998;2023-07-02T06:21:09;21.80;;;9.23;;
3141;SDS011;1581;51.568;6.998;2023-07-02T06:23:40;18.87;;;8.00;;
3141;SDS011;1581;51.568;6.998;2023-07-02T06:26:08;28.23;;;9.77;;
3141;SDS011;1581;51.568;6.998;2023-07-02T06:28:36;19.50;;;9.53;;
3141;SDS011;1581;51.568;6.998;2023-07-02T06:31:06;22.50;;;8.40;;
3141;SDS011;1581;51.568;6.998;2023-07-02T06:33:34;26.65;;;9.13;;
3141;SDS011;1581;51.568;6.998;2023-07-02T06:36:07;27.25;;;10.15;;
3141;SDS011;1581;51.568;6.998;2023-07-02T06:38:36;25.33;;;9.02;;
3141;SDS011;1581;51.568;6.998;2023-07-02T06:41:06;20.97;;;10.17;;
3141;SDS011;1581;51.568;6.998;2023-07-02T06:43:33;22.40;;;9.07;;
3141;SDS011;1581;51.568;6.998;2023-07-02T06:46:01;20.95;;;9.35;;
3141;SDS011;1581;51.568;6.998;2023-07-02T06:48:31;20.95;;;8.40;;
3141;SDS011;1581;51.568;6.998;2023-07-02T06:50:59;22.00;;;8.65;;
3141;SDS011;1581;51.568;6.998;2023-07-02T06:53:27;17.70;;;8.15;;
3141;SDS011;1581;51.568;6.998;2023-07-02T06:55:55;25.52;;;10.02;;
3141;SDS011;1581;51.568;6.998;2023-07-02T06:58:23;21.52;;;9.13;;
3141;SDS011;1581;51.568;6.998;2023-07-02T07:00:51;21.88;;;9.30;;
3141;SDS011;1581;51.568;6.998;2023-07-02T07:03:19;21.73;;;9.60;;
3141;SDS011;1581;51.568;6.998;2023-07-02T07:05:48;19.92;;;8.95;;
3141;SDS011;1581;51.568;6.998;2023-07-02T07:08:16;19.98;;;9.82;;
3141;SDS011;1581;51.568;6.998;2023-07-02T07:10:46;20.50;;;8.30;;
3141;SDS011;1581;51.568;6.998;2023-07-02T07:13:15;19.50;;;9.40;;
3141;SDS011;1581;51.568;6.998;2023-07-02T07:15:42;23.65;;;9.10;;
3141;SDS011;1581;51.568;6.998;2023-07-02T07:18:11;23.67;;;10.00;;
3141;SDS011;1581;51.568;6.998;2023-07-02T07:20:39;17.90;;;8.13;;
3141;SDS011;1581;51.568;6.998;2023-07-02T07:23:10;19.20;;;8.43;;
3141;SDS011;1581;51.568;6.998;2023-07-02T07:25:38;15.48;;;8.07;;
3141;SDS011;1581;51.568;6.998;2023-07-02T07:28:05;28.27;;;9.50;;
3141;SDS011;1581;51.568;6.998;2023-07-02T07:30:37;20.80;;;8.80;;
3141;SDS011;1581;51.568;6.998;2023-07-02T07:33:04;18.10;;;8.65;;
3141;SDS011;1581;51.568;6.998;2023-07-02T07:35:32;22.25;;;9.35;;
3141;SDS011;1581;51.568;6.998;2023-07-02T07:38:00;29.35;;;9.07;;
3141;SDS011;1581;51.568;6.998;2023-07-02T07:40:30;17.35;;;7.70;;
3141;SDS011;1581;51.568;6.998;2023-07-02T07:42:58;20.88;;;7.88;;
3141;SDS011;1581;51.568;6.998;2023-07-02T07:45:26;26.38;;;7.78;;
3141;SDS011;1581;51.568;6.998;2023-07-02T07:47:54;19.10;;;7.60;;
3141;SDS011;1581;51.568;6.998;2023-07-02T07:50:22;21.17;;;8.50;;
3141;SDS011;1581;51.568;6.998;2023-07-02T07:52:49;24.33;;;8.50;;
3141;SDS011;1581;51.568;6.998;2023-07-02T07:55:17;18.23;;;7.78;;
3141;SDS011;1581;51.568;6.998;2023-07-02T07:57:47;21.85;;;8.23;;
3141;SDS011;1581;51.568;6.998;2023-07-02T08:00:15;19.23;;;7.63;;
3141;SDS011;1581;51.568;6.998;2023-07-02T08:02:44;23.80;;;9.05;;
3141;SDS011;1581;51.568;6.998;2023-07-02T08:05:12;23.20;;;7.85;;
3141;SDS011;1581;51.568;6.998;2023-07-02T08:07:40;20.90;;;7.38;;
3141;SDS011;1581;51.568;6.998;2023-07-02T08:10:08;15.75;;;7.07;;
3141;SDS011;1581;51.568;6.998;2023-07-02T08:12:37;17.88;;;7.85;;
3141;SDS011;1581;51.568;6.998;2023-07-02T08:15:06;18.80;;;7.95;;
3141;SDS011;1581;51.568;6.998;2023-07-02T08:17:35;20.60;;;7.53;;
3141;SDS011;1581;51.568;6.998;2023-07-02T08:20:03;21.50;;;8.48;;
3141;SDS011;1581;51.568;6.998;2023-07-02T08:22:34;14.52;;;6.68;;
3141;SDS011;1581;51.568;6.998;2023-07-02T08:25:02;16.88;;;8.00;;
3141;SDS011;1581;51.568;6.998;2023-07-02T08:27:31;17.65;;;7.80;;
3141;SDS011;1581;51.568;6.998;2023-07-02T08:29:59;19.58;;;7.45;;
3141;SDS011;1581;51.568;6.998;2023-07-02T08:32:28;26.88;;;6.93;;
3141;SDS011;1581;51.568;6.998;2023-07-02T08:34:57;18.60;;;7.70;;
3141;SDS011;1581;51.568;6.998;2023-07-02T08:37:25;17.23;;;7.18;;
3141;SDS011;1581;51.568;6.998;2023-07-02T08:39:53;15.00;;;6.72;;
3141;SDS011;1581;51.568;6.998;2023-07-02T08:42:21;16.90;;;6.03;;
3141;SDS011;1581;51.568;6.998;2023-07-02T08:44:53;19.55;;;6.75;;
3141;SDS011;1581;51.568;6.998;2023-07-02T08:47:22;19.60;;;6.82;;
3141;SDS011;1581;51.568;6.998;2023-07-02T08:49:51;17.75;;;6.88;;
3141;SDS011;1581;51.568;6.998;2023-07-02T08:52:19;17.20;;;5.07;;
3141;SDS011;1581;51.568;6.998;2023-07-02T08:54:47;21.10;;;6.15;;
3141;SDS011;1581;51.568;6.998;2023-07-02T08:57:16;15.00;;;6.53;;
3141;SDS011;1581;51.568;6.998;2023-07-02T08:59:44;14.60;;;5.70;;
3141;SDS011;1581;51.568;6.998;2023-07-02T09:02:12;15.27;;;6.35;;
3141;SDS011;1581;51.568;6.998;2023-07-02T09:04:39;14.23;;;5.68;;
3141;SDS011;1581;51.568;6.998;2023-07-02T09:07:10;15.70;;;5.90;;
3141;SDS011;1581;51.568;6.998;2023-07-02T09:09:45;14.90;;;6.00;;
3141;SDS011;1581;51.568;6.998;2023-07-02T09:12:24;13.93;;;5.53;;
3141;SDS011;1581;51.568;6.998;2023-07-02T09:14:56;11.35;;;6.05;;
3141;SDS011;1581;51.568;6.998;2023-07-02T09:17:28;15.57;;;5.88;;
3141;SDS011;1581;51.568;6.998;2023-07-02T09:19:57;13.27;;;5.95;;
3141;SDS011;1581;51.568;6.998;2023-07-02T09:22:29;16.35;;;5.80;;
3141;SDS011;1581;51.568;6.998;2023-07-02T09:24:57;13.45;;;5.93;;
3141;SDS011;1581;51.568;6.998;2023-07-02T09:27:33;11.88;;;5.70;;
3141;SDS011;1581;51.568;6.998;2023-07-02T09:30:07;15.50;;;6.00;;
3141;SDS011;1581;51.568;6.998;2023-07-02T09:32:38;11.45;;;5.28;;
3141;SDS011;1581;51.568;6.998;2023-07-02T09:35:06;12.68;;;5.78;;
3141;SDS011;1581;51.568;6.998;2023-07-02T09:37:36;13.35;;;5.72;;
3141;SDS011;1581;51.568;6.998;2023-07-02T09:40:05;11.30;;;5.65;;
3141;SDS011;1581;51.568;6.998;2023-07-02T09:42:35;17.00;;;6.53;;
3141;SDS011;1581;51.568;6.998;2023-07-02T09:45:05;11.27;;;5.20;;
3141;SDS011;1581;51.568;6.998;2023-07-02T09:47:38;14.68;;;5.57;;
3141;SDS011;1581;51.568;6.998;2023-07-02T09:50:13;12.32;;;5.63;;
3141;SDS011;1581;51.568;6.998;2023-07-02T09:52:45;11.98;;;6.00;;
3141;SDS011;1581;51.568;6.998;2023-07-02T09:55:14;11.82;;;5.03;;
3141;SDS011;1581;51.568;6.998;2023-07-02T09:57:43;16.52;;;6.10;;
3141;SDS011;1581;51.568;6.998;2023-07-02T10:00:13;10.68;;;4.82;;
3141;SDS011;1581;51.568;6.998;2023-07-02T10:02:41;17.00;;;5.10;;
3141;SDS011;1581;51.568;6.998;2023-07-02T10:05:24;9.40;;;5.53;;
3141;SDS011;1581;51.568;6.998;2023-07-02T10:07:55;11.93;;;5.40;;
3141;SDS011;1581;51.568;6.998;2023-07-02T10:10:27;11.40;;;5.68;;
3141;SDS011;1581;51.568;6.998;2023-07-02T10:12:56;11.98;;;5.45;;
3141;SDS011;1581;51.568;6.998;2023-07-02T10:15:26;10.50;;;5.82;;
3141;SDS011;1581;51.568;6.998;2023-07-02T10:17:56;13.35;;;5.75;;
3141;SDS011;1581;51.568;6.998;2023-07-02T10:20:31;15.68;;;5.60;;
3141;SDS011;1581;51.568;6.998;2023-07-02T10:23:02;16.13;;;6.10;;
3141;SDS011;1581;51.568;6.998;2023-07-02T10:25:32;16.95;;;5.72;;
3141;SDS011;1581;51.568;6.998;2023-07-02T10:28:13;9.95;;;5.45;;
3141;SDS011;1581;51.568;6.998;2023-07-02T10:30:42;10.95;;;6.13;;
3141;SDS011;1581;51.568;6.998;2023-07-02T10:33:10;13.45;;;5.97;;
3141;SDS011;1581;51.568;6.998;2023-07-02T10:35:40;11.05;;;5.32;;
3141;SDS011;1581;51.568;6.998;2023-07-02T10:38:17;11.23;;;5.22;;
3141;SDS011;1581;51.568;6.998;2023-07-02T10:40:53;10.27;;;5.57;;
3141;SDS011;1581;51.568;6.998;2023-07-02T10:43:26;12.90;;;6.22;;
3141;SDS011;1581;51.568;6.998;2023-07-02T10:45:54;9.80;;;5.25;;
3141;SDS011;1581;51.568;6.998;2023-07-02T10:48:25;11.02;;;5.45;;
3141;SDS011;1581;51.568;6.998;2023-07-02T10:50:54;10.23;;;5.40;;
3141;SDS011;1581;51.568;6.998;2023-07-02T10:53:24;14.02;;;5.25;;
3141;SDS011;1581;51.568;6.998;2023-07-02T10:55:55;8.57;;;4.75;;
3141;SDS011;1581;51.568;6.998;2023-07-02T10:58:25;6.82;;;5.00;;
3141;SDS011;1581;51.568;6.998;2023-07-02T11:00:53;8.68;;;4.93;;
3141;SDS011;1581;51.568;6.998;2023-07-02T11:03:22;10.82;;;4.88;;
3141;SDS011;1581;51.568;6.998;2023-07-02T11:05:53;13.77;;;5.13;;
3141;SDS011;1581;51.568;6.998;2023-07-02T11:08:24;9.45;;;4.40;;
3141;SDS011;1581;51.568;6.998;2023-07-02T11:11:06;11.45;;;5.80;;
3141;SDS011;1581;51.568;6.998;2023-07-02T11:13:43;8.70;;;5.07;;
3141;SDS011;1581;51.568;6.998;2023-07-02T11:16:19;10.45;;;4.72;;
3141;SDS011;1581;51.568;6.998;2023-07-02T11:18:51;7.93;;;4.53;;
3141;SDS011;1581;51.568;6.998;2023-07-02T11:21:20;6.45;;;4.10;;
3141;SDS011;1581;51.568;6.998;2023-07-02T11:23:50;9.55;;;5.03;;
3141;SDS011;1581;51.568;6.998;2023-07-02T11:26:34;8.05;;;4.90;;
3141;SDS011;1581;51.568;6.998;2023-07-02T11:29:10;7.78;;;4.60;;
3141;SDS011;1581;51.568;6.998;2023-07-02T11:31:44;8.00;;;4.90;;
3141;SDS011;1581;51.568;6.998;2023-07-02T11:34:13;8.52;;;5.38;;
3141;SDS011;1581;51.568;6.998;2023-07-02T11:36:43;7.45;;;4.68;;
3141;SDS011;1581;51.568;6.998;2023-07-02T11:39:14;9.05;;;4.55;;
3141;SDS011;1581;51.568;6.998;2023-07-02T11:41:43;5.65;;;4.32;;
3141;SDS011;1581;51.568;6.998;2023-07-02T11:44:12;11.95;;;4.47;;
3141;SDS011;1581;51.568;6.998;2023-07-02T11:46:40;8.05;;;4.78;;
3141;SDS011;1581;51.568;6.998;2023-07-02T11:49:09;13.57;;;4.35;;
3141;SDS011;1581;51.568;6.998;2023-07-02T11:51:37;10.63;;;5.25;;
3141;SDS011;1581;51.568;6.998;2023-07-02T11:54:06;5.85;;;3.65;;
3141;SDS011;1581;51.568;6.998;2023-07-02T11:56:35;6.85;;;4.22;;
3141;SDS011;1581;51.568;6.998;2023-07-02T11:59:03;9.02;;;4.65;;
3141;SDS011;1581;51.568;6.998;2023-07-02T12:01:31;8.75;;;4.95;;
3141;SDS011;1581;51.568;6.998;2023-07-02T12:03:59;8.63;;;4.88;;
3141;SDS011;1581;51.568;6.998;2023-07-02T12:06:30;11.02;;;4.78;;
3141;SDS011;1581;51.568;6.998;2023-07-02T12:08:59;9.95;;;5.00;;
3141;SDS011;1581;51.568;6.998;2023-07-02T12:11:29;9.27;;;4.25;;
3141;SDS011;1581;51.568;6.998;2023-07-02T12:14:02;9.20;;;4.38;;
3141;SDS011;1581;51.568;6.998;2023-07-02T12:16:30;7.93;;;3.88;;
3141;SDS011;1581;51.568;6.998;2023-07-02T12:18:58;8.00;;;4.65;;
3141;SDS011;1581;51.568;6.998;2023-07-02T12:21:26;7.35;;;4.30;;
3141;SDS011;1581;51.568;6.998;2023-07-02T12:23:54;6.47;;;4.60;;
3141;SDS011;1581;51.568;6.998;2023-07-02T12:26:22;5.50;;;4.07;;
3141;SDS011;1581;51.568;6.998;2023-07-02T12:28:50;10.13;;;5.30;;
3141;SDS011;1581;51.568;6.998;2023-07-02T12:31:20;8.43;;;4.75;;
3141;SDS011;1581;51.568;6.998;2023-07-02T12:33:48;8.85;;;4.88;;
3141;SDS011;1581;51.568;6.998;2023-07-02T12:36:15;8.50;;;4.18;;
3141;SDS011;1581;51.568;6.998;2023-07-02T12:38:43;10.68;;;5.55;;
3141;SDS011;1581;51.568;6.998;2023-07-02T12:41:11;9.48;;;4.82;;
3141;SDS011;1581;51.568;6.998;2023-07-02T12:43:39;11.25;;;4.55;;
3141;SDS011;1581;51.568;6.998;2023-07-02T12:46:07;7.32;;;4.47;;
3141;SDS011;1581;51.568;6.998;2023-07-02T12:48:36;7.38;;;4.07;;
3141;SDS011;1581;51.568;6.998;2023-07-02T12:51:04;10.27;;;4.40;;
3141;SDS011;1581;51.568;6.998;2023-07-02T12:53:32;6.50;;;4.68;;
3141;SDS011;1581;51.568;6.998;2023-07-02T12:56:00;8.02;;;4.68;;
3141;SDS011;1581;51.568;6.998;2023-07-02T12:58:28;6.45;;;4.22;;
3141;SDS011;1581;51.568;6.998;2023-07-02T13:00:56;6.65;;;4.65;;
3141;SDS011;1581;51.568;6.998;2023-07-02T13:03:24;6.78;;;4.70;;
3141;SDS011;1581;51.568;6.998;2023-07-02T13:05:53;7.40;;;4.35;;
3141;SDS011;1581;51.568;6.998;2023-07-02T13:08:21;9.32;;;4.13;;
3141;SDS011;1581;51.568;6.998;2023-07-02T13:10:49;9.85;;;3.40;;
3141;SDS011;1581;51.568;6.998;2023-07-02T13:13:17;4.90;;;3.85;;
3141;SDS011;1581;51.568;6.998;2023-07-02T13:15:45;11.02;;;5.10;;
3141;SDS011;1581;51.568;6.998;2023-07-02T13:18:14;7.88;;;4.60;;
3141;SDS011;1581;51.568;6.998;2023-07-02T13:20:45;10.73;;;4.78;;
3141;SDS011;1581;51.568;6.998;2023-07-02T13:23:15;9.90;;;4.80;;
3141;SDS011;1581;51.568;6.998;2023-07-02T13:25:43;8.32;;;4.88;;
3141;SDS011;1581;51.568;6.998;2023-07-02T13:28:11;7.03;;;5.15;;
3141;SDS011;1581;51.568;6.998;2023-07-02T13:30:40;7.72;;;4.53;;
3141;SDS011;1581;51.568;6.998;2023-07-02T13:33:08;8.98;;;4.82;;
3141;SDS011;1581;51.568;6.998;2023-07-02T13:35:36;14.18;;;4.35;;
3141;SDS011;1581;51.568;6.998;2023-07-02T13:38:05;8.68;;;4.80;;
3141;SDS011;1581;51.568;6.998;2023-07-02T13:40:35;8.50;;;4.68;;
3141;SDS011;1581;51.568;6.998;2023-07-02T13:43:04;6.93;;;5.05;;
3141;SDS011;1581;51.568;6.998;2023-07-02T13:45:32;15.30;;;5.18;;
3141;SDS011;1581;51.568;6.998;2023-07-02T13:48:03;8.65;;;5.38;;
3141;SDS011;1581;51.568;6.998;2023-07-02T13:50:32;10.38;;;5.20;;
3141;SDS011;1581;51.568;6.998;2023-07-02T13:53:01;11.43;;;5.65;;
3141;SDS011;1581;51.568;6.998;2023-07-02T13:55:29;14.43;;;5.43;;
3141;SDS011;1581;51.568;6.998;2023-07-02T13:58:02;7.15;;;5.32;;
3141;SDS011;1581;51.568;6.998;2023-07-02T14:00:32;20.02;;;6.68;;
3141;SDS011;1581;51.568;6.998;2023-07-02T14:03:01;13.30;;;5.90;;
3141;SDS011;1581;51.568;6.998;2023-07-02T14:05:31;14.45;;;6.22;;
3141;SDS011;1581;51.568;6.998;2023-07-02T14:08:00;13.95;;;6.00;;
3141;SDS011;1581;51.568;6.998;2023-07-02T14:10:28;15.63;;;5.60;;
3141;SDS011;1581;51.568;6.998;2023-07-02T14:12:58;20.15;;;6.75;;
3141;SDS011;1581;51.568;6.998;2023-07-02T14:15:26;12.52;;;6.22;;
3141;SDS011;1581;51.568;6.998;2023-07-02T14:17:56;21.75;;;6.90;;
3141;SDS011;1581;51.568;6.998;2023-07-02T14:20:24;18.13;;;6.97;;
3141;SDS011;1581;51.568;6.998;2023-07-02T14:22:52;13.02;;;6.25;;
3141;SDS011;1581;51.568;6.998;2023-07-02T14:25:20;10.90;;;5.72;;
3141;SDS011;1581;51.568;6.998;2023-07-02T14:27:48;12.38;;;5.97;;
3141;SDS011;1581;51.568;6.998;2023-07-02T14:30:16;10.48;;;5.63;;
3141;SDS011;1581;51.568;6.998;2023-07-02T14:32:44;7.82;;;4.82;;
3141;SDS011;1581;51.568;6.998;2023-07-02T14:35:13;9.70;;;5.78;;
3141;SDS011;1581;51.568;6.998;2023-07-02T14:37:41;9.13;;;5.75;;
3141;SDS011;1581;51.568;6.998;2023-07-02T14:40:10;10.05;;;5.53;;
3141;SDS011;1581;51.568;6.998;2023-07-02T14:42:44;6.68;;;5.10;;
3141;SDS011;1581;51.568;6.998;2023-07-02T14:45:15;10.95;;;6.03;;
3141;SDS011;1581;51.568;6.998;2023-07-02T14:47:43;10.27;;;5.72;;
3141;SDS011;1581;51.568;6.998;2023-07-02T14:50:11;8.98;;;5.20;;
3141;SDS011;1581;51.568;6.998;2023-07-02T14:52:41;13.05;;;5.93;;
3141;SDS011;1581;51.568;6.998;2023-07-02T14:55:09;11.23;;;5.80;;
3141;SDS011;1581;51.568;6.998;2023-07-02T14:57:37;9.13;;;5.80;;
3141;SDS011;1581;51.568;6.998;2023-07-02T15:00:07;10.75;;;6.07;;
3141;SDS011;1581;51.568;6.998;2023-07-02T15:02:36;12.43;;;5.85;;
3141;SDS011;1581;51.568;6.998;2023-07-02T15:05:04;12.90;;;6.13;;
3141;SDS011;1581;51.568;6.998;2023-07-02T15:07:34;11.75;;;5.93;;
3141;SDS011;1581;51.568;6.998;2023-07-02T15:10:02;10.80;;;6.72;;
3141;SDS011;1581;51.568;6.998;2023-07-02T15:12:30;8.13;;;5.65;;